JAL2088 ROAH-RJOO
Flight info
| Callsign | JAL2088 |
|---|---|
| Flight time | N/A |
| Altitude | 41000 |
| Route | AMAMI Y53 MADOG Y753 IZUMI |
| Aircraft | A359/H-SDE2E3GHIJ3J4J5LM1ORWXY/LB1D1 |
Departure
| Time | 2026-04-30 07:28 |
|---|---|
| Airport | Naha International Airport (ROAH) |
Arrival
| Time | N/A |
|---|---|
| Airport | Osaka Itami International Airport (RJOO) |
| Time | Latitude | Longitude | Altitude | Speed | Heading |
|---|---|---|---|---|---|
| 2026-04-30 07:16 | 26.20705 | 127.64925 | 27 ft | 0 kts | 30° |
| 2026-04-30 07:20 | 26.20703 | 127.64923 | 27 ft | 1 kts | 30° |
| 2026-04-30 07:21 | 26.20694 | 127.64918 | 28 ft | 1 kts | 30° |
| 2026-04-30 07:21 | 26.20682 | 127.64912 | 27 ft | 2 kts | 4° |
| 2026-04-30 07:21 | 26.20669 | 127.64912 | 27 ft | 2 kts | 333° |
| 2026-04-30 07:21 | 26.20659 | 127.64920 | 26 ft | 1 kts | 313° |
| 2026-04-30 07:23 | 26.20654 | 127.64926 | 25 ft | 3 kts | 296° |
| 2026-04-30 07:23 | 26.20653 | 127.64924 | 25 ft | 3 kts | 283° |
| 2026-04-30 07:23 | 26.20651 | 127.64840 | 28 ft | 15 kts | 253° |
| 2026-04-30 07:23 | 26.20583 | 127.64765 | 28 ft | 15 kts | 190° |
| 2026-04-30 07:24 | 26.20474 | 127.64760 | 28 ft | 17 kts | 177° |
| 2026-04-30 07:24 | 26.20343 | 127.64768 | 28 ft | 20 kts | 177° |
| 2026-04-30 07:24 | 26.20191 | 127.64777 | 28 ft | 23 kts | 177° |
| 2026-04-30 07:24 | 26.20019 | 127.64787 | 28 ft | 26 kts | 177° |
| 2026-04-30 07:25 | 26.19828 | 127.64799 | 28 ft | 29 kts | 177° |
| 2026-04-30 07:25 | 26.19550 | 127.64811 | 28 ft | 31 kts | 179° |
| 2026-04-30 07:25 | 26.19399 | 127.64816 | 28 ft | 33 kts | 178° |
| 2026-04-30 07:25 | 26.19162 | 127.64824 | 29 ft | 35 kts | 177° |
| 2026-04-30 07:26 | 26.18916 | 127.64834 | 29 ft | 37 kts | 178° |
| 2026-04-30 07:26 | 26.18656 | 127.64844 | 29 ft | 38 kts | 178° |
| 2026-04-30 07:26 | 26.18399 | 127.64859 | 29 ft | 30 kts | 176° |
| 2026-04-30 07:26 | 26.18352 | 127.64862 | 29 ft | 0 kts | 176° |
| 2026-04-30 07:27 | 26.18336 | 127.64863 | 29 ft | 7 kts | 176° |
| 2026-04-30 07:27 | 26.18265 | 127.64836 | 29 ft | 12 kts | 225° |
| 2026-04-30 07:27 | 26.18241 | 127.64724 | 28 ft | 19 kts | 266° |
| 2026-04-30 07:27 | 26.18287 | 127.64637 | 27 ft | 8 kts | 353° |
| 2026-04-30 07:28 | 26.18442 | 127.64639 | 28 ft | 59 kts | 356° |
| 2026-04-30 07:28 | 26.19112 | 127.64604 | 30 ft | 131 kts | 356° |
| 2026-04-30 07:28 | 26.20196 | 127.64539 | 201 ft | 171 kts | 354° |
| 2026-04-30 07:28 | 26.21310 | 127.64491 | 1250 ft | 157 kts | 353° |
| 2026-04-30 07:29 | 26.22492 | 127.64437 | 1810 ft | 187 kts | 353° |
| 2026-04-30 07:29 | 26.23906 | 127.64365 | 2174 ft | 219 kts | 353° |
| 2026-04-30 07:29 | 26.25479 | 127.63971 | 2523 ft | 244 kts | 333° |
| 2026-04-30 07:29 | 26.27024 | 127.63081 | 3215 ft | 256 kts | 327° |
| 2026-04-30 07:30 | 26.30234 | 127.61082 | 4810 ft | 271 kts | 325° |
| 2026-04-30 07:30 | 26.31891 | 127.60062 | 5749 ft | 273 kts | 325° |
| 2026-04-30 07:30 | 26.33555 | 127.59041 | 6699 ft | 274 kts | 324° |
| 2026-04-30 07:31 | 26.35216 | 127.58021 | 7535 ft | 279 kts | 324° |
| 2026-04-30 07:31 | 26.36934 | 127.56966 | 8452 ft | 284 kts | 324° |
| 2026-04-30 07:31 | 26.38676 | 127.55899 | 9433 ft | 287 kts | 324° |
| 2026-04-30 07:31 | 26.40366 | 127.54720 | 10288 ft | 288 kts | 315° |
| 2026-04-30 07:32 | 26.41744 | 127.53053 | 10714 ft | 299 kts | 296° |
| 2026-04-30 07:32 | 26.42496 | 127.50859 | 11122 ft | 309 kts | 275° |
| 2026-04-30 07:32 | 26.42451 | 127.48478 | 11922 ft | 306 kts | 256° |
| 2026-04-30 07:32 | 26.41624 | 127.46353 | 13123 ft | 295 kts | 236° |
| 2026-04-30 07:33 | 26.40165 | 127.44826 | 14457 ft | 284 kts | 215° |
| 2026-04-30 07:33 | 26.38320 | 127.44053 | 15548 ft | 289 kts | 196° |
| 2026-04-30 07:33 | 26.36285 | 127.44024 | 16175 ft | 310 kts | 179° |
| 2026-04-30 07:33 | 26.34122 | 127.44722 | 16495 ft | 340 kts | 163° |
| 2026-04-30 07:34 | 26.32017 | 127.46118 | 16912 ft | 363 kts | 149° |
| 2026-04-30 07:34 | 26.30289 | 127.47942 | 17597 ft | 371 kts | 137° |
| 2026-04-30 07:34 | 26.28816 | 127.50298 | 18549 ft | 372 kts | 124° |
| 2026-04-30 07:34 | 26.27773 | 127.52932 | 19390 ft | 373 kts | 113° |
| 2026-04-30 07:35 | 26.27142 | 127.55756 | 19973 ft | 381 kts | 103° |